Wake Forest, NC

7:15 PM EDT on September 25, 2016 (GMT -0400)
Waterfall Plantation, Welcome Dr | | Change Station

Elev 300 ft 35.98 °N, 78.55 °W | Updated 17 seconds ago

Overcast
Overcast
70.3 °F
Feels Like 70.3 °F
N
0.0
Wind Variable Wind from NW
Gusts 0.0 mph

Today
High -- | Low -- °F
--% Chance of Precip.
Yesterday
High -- | Low -- °F
Precip. -- in
Pressure 30.15 in
Visibility 10.0 miles
Clouds Overcast 2500 ft
Dew Point 67 °F
Humidity 89%
Rainfall 0.00 in
Snow Depth Not available.
7:04 AM 7:05 PM
Waning Crescent, 24% visible
METAR KLHZ 252305Z AUTO 08004KT 10SM OVC025 20/17 A3015 RMK AO2
Pressure 30.15 in
Visibility 10.0 miles
Clouds Overcast 2500 ft
Dew Point 67 °F
Humidity 89%
Rainfall 0.00 in
Snow Depth Not available.
7:04 AM 7:05 PM
Waning Crescent, 24% visible
METAR KLHZ 252305Z AUTO 08004KT 10SM OVC025 20/17 A3015 RMK AO2

10-Day Weather Forecast

Almanac

Astronomy

Sep. 25, 2016 Rise Set
Actual Time
Civil Twilight
Nautical Twilight
Astronomical Twilight
Moon
Length of Visible Light
Length of Day
Tomorrow will be .
, % of the Moon is Illuminated

Today's Extremes

State Highs State Lows

Community

WunderPhotos

Upload Photos

1,941,777 photos uploaded!

WunderBlog® & News

Nearby

Air Quality

  Air Quality AQ Index Pollutant
Not available.

Snow Depth

Station Depth Elevation

Earthquake Activity

City Distance Mag. Time & Date
Minimum magnitude displayed is 2.5.

Coastal Water Temperatures

Place Temperature

Stations

Nearby Weather Stations

Station Location Temp. Windchill Dew Point Humidity Wind Precip. Elev Updated Type
                   

Watches & Warnings

There are currently no watches in effect.